Main page
METAR-TAF:

METAR-TAF

Airports :

Gökçeada Airport

Gökçeada, Turkey

latitude: 40-12-04N, longitude: 25-52-56E, elevation: 22 m

Current weather observation

The report was made 15 hours and 2 minutes ago, at 12:50 UTC
Wind 6 kt from the Northwest
Temperature 21°C
Humidity 56%
Pressure 1007 hPa
Visibility 10 km or more
Few clouds at a height of 3000 ft

METAR: LTFK 021250Z 31006KT 9999 FEW030 21/12 Q1007

Time: 06:52 (03:52 UTC)

Forecast

The report was made 2 hours and 12 minutes ago, at 01:40 UTC
Forecast valid from 03 at 03 UTC to 03 at 12 UTC
Wind 2 kt from variable directions
Visibility 10 km or more
Scattered clouds at a height of 3500 ft
Broken clouds at a height of 10000 ft
Temporary
from 03 at 04 UTC to 03 at 08 UTC
light rain showers

TAF: LTFK 030140Z 0303/0312 VRB02KT 9999 SCT035 BKN100 TEMPO 0304/0308 -SHRA

Weather observations and forecasts of more than 4000 airports (METAR and TAF reports).

The available stations are represented by yellow and red dots on the map.

Hover mouse over dot to see the name of the station.

Then click to see weather observations and forecasts.

To change the map : click on the green buttons with a black cross to zoom in, on the green button with a dash to zoom out, or on the green arrows for adjacent maps.


METAR-TAF: